Accueil
METAR-TAF:

METAR-TAF

Aéroports :

Malekula, Vanuatu

latitude: 16-27-26S, longitude: 167-49-42E, altitude: 2 m

Observation

Le bulletin a été fait il y a 43 minutes, à 09:00 UTC
Vent 10 kt de est
Température 28°C
Humidité 74%
Pression 1005 hPa
Visibilité 10 km ou plus
Nuages épars à une hauteur de 2500 ft

METAR: NVSL 240900Z 10010KT 9999 SCT025 28/23 Q1005 RMK NIL

Heure: 20:43 (09:43 UTC)

Prévision

Le bulletin a été fait il y a 5 heures et 13 minutes, à 04:30 UTC
Prévision valable du 24 à 06 UTC au 25 à 06 UTC
Vent 10 kt de est/sud-est
Visibilité 10 km ou plus
Nuages épars à une hauteur de 2000 ft

TAF: NVSL 240430Z 2406/2506 11010KT 9999 SCT020

Observations et prévisions météorologiques de plus de 4000 aéroports (messages METAR et TAF).

Les stations disponibles sont représentées par des disques jaunes et rouges sur la carte.

Passer la souris dessus pour voir le nom de la station.

Cliquer dessus pour voir les observations et prévisions météorologiques.

Pour changer de carte: cliquez sur les boutons verts avec une croix noire pour zoomer, sur le bouton vert avec un tiret pour effectuer un zoom arrière, ou sur les flèches vertes pour les cartes adjacentes.


METAR-TAF: